1893 Severe Cyclonic Storm NOT_NAMED (1893316N12073)


IBTrACS version v04r00. Visit IBTrACS website for data access.
Please direct all questions to the IBTrACS Q and A forum

Storm track - Intensity - Wind Radii - Intensity Data - Source Data - All data

Summary Information

Storm ID 1893316N12073
Start Nov 12 00Z
Max Intensity 64 kt (Nov 14 12Z)
End Nov 20 03Z
ATCF IDs
Track status Best track data.

Storm track plot

Map of storm track

Intensity plots

Map of storm track

Radial wind information

No radial wind information for this storm


Position and Intensity Table

BASIN ISO_TIME_________ NATURE LAT LON DS824 WIND
degrees north degrees east kts
NI 1893-11-12 00:00:00 TS 11.90 73.00 30
NI 03:00:00 TS 11.93 72.90 30
NI 06:00:00 TS 11.99 72.76 30
NI 09:00:00 TS 12.08 72.62 30
NI 12:00:00 TS 12.16 72.48 30
NI 15:00:00 TS 12.22 72.32 30
NI 18:00:00 TS 12.29 72.17 30
NI 21:00:00 TS 12.39 72.01 30
NI 1893-11-13 00:00:00 TS 12.47 71.87 30
NI 03:00:00 TS 12.50 71.75 30
NI 06:00:00 TS 12.52 71.64 30
NI 09:00:00 TS 12.55 71.55 30
NI 12:00:00 TS 12.58 71.45 30
NI 15:00:00 TS 12.62 71.32 31
NI 18:00:00 TS 12.68 71.19 32
NI 21:00:00 TS 12.76 71.08 33
NI 1893-11-14 00:00:00 TS 12.85 70.97 34
NI 03:00:00 TS 12.95 70.83 41
NI 06:00:00 TS 13.05 70.68 49
NI 09:00:00 TS 13.15 70.53 56
NI 12:00:00 TS 13.25 70.38 64
NI 15:00:00 TS 13.35 70.23 64
NI 18:00:00 TS 13.43 70.08 64
NI 21:00:00 TS 13.49 69.91 64
NI 1893-11-15 00:00:00 TS 13.55 69.71 64
NI 03:00:00 TS 13.67 69.46 64
NI 06:00:00 TS 13.81 69.17 64
NI 09:00:00 TS 13.95 68.88 64
NI 12:00:00 TS 14.11 68.57 64
NI 15:00:00 TS 14.30 68.23 64
NI 18:00:00 TS 14.50 67.88 64
NI 21:00:00 TS 14.70 67.52 64
NI 1893-11-16 00:00:00 TS 14.90 67.17 64
NI 03:00:00 TS 15.08 66.84 64
NI 06:00:00 TS 15.23 66.55 64
NI 09:00:00 TS 15.38 66.28 64
NI 12:00:00 TS 15.53 66.02 64
NI 15:00:00 TS 15.67 65.77 64
NI 18:00:00 TS 15.84 65.51 64
NI 21:00:00 TS 16.04 65.27 64
NI 1893-11-17 00:00:00 TS 16.22 65.08 64
NI 03:00:00 TS 16.36 64.96 64
NI 06:00:00 TS 16.46 64.91 64
NI 09:00:00 TS 16.56 64.89 64
NI 12:00:00 TS 16.66 64.90 64
NI 15:00:00 TS 16.75 64.88 64
NI 18:00:00 TS 16.84 64.82 64
NI 21:00:00 TS 16.91 64.78 64
NI 1893-11-18 00:00:00 TS 17.03 64.78 64
NI 03:00:00 TS 17.24 64.83 64
NI 06:00:00 TS 17.51 64.95 64
NI 09:00:00 TS 17.75 65.14 64
NI 12:00:00 TS 17.98 65.38 64
NI 15:00:00 TS 18.18 65.62 64
NI 18:00:00 TS 18.33 65.86 64
NI 21:00:00 TS 18.46 66.13 64
NI 1893-11-19 00:00:00 TS 18.61 66.43 64
NI 03:00:00 TS 18.84 66.79 64
NI 06:00:00 TS 19.12 67.19 64
NI 09:00:00 TS 19.39 67.62 64
NI 12:00:00 TS 19.66 68.07 64
NI 15:00:00 TS 19.93 68.52 55
NI 18:00:00 TS 20.16 68.95 47
NI 21:00:00 TS 20.37 69.42 38
NI 1893-11-20 00:00:00 TS 20.56 69.88 30
NI 03:00:00 NR 20.70 70.20

Source Information

Agency Information
USA
TOKYO
CMA
HKO
NEWDELHI
REUNION
BOM
NADI
WELLINGTON
DS824 n_ind.dat:192:NOT NAMED
TD9636 cons_worldwide_trop_cyclone_18710101-19891231-004:Line=1943
TD9635
NEUMANN
MLC

All available IBTrACS Data

SEASON BASIN SUBBASIN ISO_TIME_________ NATURE LAT LON DIST2LAND LANDFALL IFLAG USA SSHS DS824 LAT DS824 LON DS824 STAGE DS824 WIND TD9636 LAT TD9636 LON TD9636 STAGE STORM SPEED STORM DIR
Year degrees north degrees east km km 1 degrees north degrees east kts degrees north degrees east kts degrees
1893 NI AS 1893-11-12 00:00:00 TS 11.90 73.00 220 220 _________O____ -1 11.90 73.00 TC 30 2 285
1893 NI AS 03:00:00 TS 11.93 72.90 229 229 _________PO___ -1 11.94 72.85 TC 30 11.90 73.00 1 3 291
1893 NI AS 06:00:00 TS 11.99 72.76 235 235 _________OP___ -1 12.00 72.70 TC 30 11.97 72.85 1 3 299
1893 NI AS 09:00:00 TS 12.08 72.62 251 251 _________PP___ -1 12.10 72.55 TC 30 12.05 72.71 1 3 302
1893 NI AS 12:00:00 TS 12.16 72.48 258 258 _________OP___ -1 12.20 72.40 TC 30 12.12 72.55 1 3 298
1893 NI AS 15:00:00 TS 12.22 72.32 279 277 _________PO___ -1 12.25 72.25 TC 30 12.20 72.40 1 3 294
1893 NI AS 18:00:00 TS 12.29 72.17 287 287 _________OP___ -1 12.30 72.10 TC 30 12.28 72.24 1 3 298
1893 NI AS 21:00:00 TS 12.39 72.01 307 307 _________PP___ -1 12.41 71.94 TC 30 12.37 72.09 1 3 301
1893 NI AS 1893-11-13 00:00:00 TS 12.47 71.87 316 316 _________OP___ -1 12.50 71.80 TC 30 12.44 71.94 1 3 294
1893 NI AS 03:00:00 TS 12.50 71.75 337 337 _________PO___ -1 12.51 71.69 TC 30 12.50 71.80 1 2 282
1893 NI AS 06:00:00 TS 12.52 71.64 347 347 _________OP___ -1 12.50 71.60 TC 30 12.53 71.69 1 2 283
1893 NI AS 09:00:00 TS 12.55 71.55 358 355 _________PP___ -1 12.54 71.51 TC 30 12.55 71.59 1 2 290
1893 NI AS 12:00:00 TS 12.58 71.45 366 366 _________OP___ -1 12.60 71.40 TC 30 12.57 71.50 1 2 289
1893 NI AS 15:00:00 TS 12.62 71.32 376 376 _________PO___ -1 12.64 71.25 TC 31 12.60 71.40 1 3 290
1893 NI AS 18:00:00 TS 12.68 71.19 385 385 _________OP___ -1 12.70 71.10 TC 32 12.66 71.29 1 3 300
1893 NI AS 21:00:00 TS 12.76 71.08 393 393 _________PP___ -1 12.79 71.00 TC 33 12.73 71.16 1 3 309
1893 NI AS 1893-11-14 00:00:00 TS 12.85 70.97 396 396 _________OP___ -1 12.90 70.90 TC 34 12.81 71.04 1 3 308
1893 NI AS 03:00:00 TS 12.95 70.83 408 408 _________PO___ -1 13.00 70.76 TC 41 12.90 70.90 2 3 305
1893 NI AS 06:00:00 TS 13.05 70.68 417 411 _________OP___ -1 13.10 70.60 TC 49 13.00 70.76 2 4 305
1893 NI AS 09:00:00 TS 13.15 70.53 429 423 _________PP___ -1 13.20 70.45 TC 56 13.10 70.62 2 4 305
1893 NI AS 12:00:00 TS 13.25 70.38 427 427 _________OP___ -1 13.30 70.30 TC 64 13.20 70.46 2 4 304
1893 NI AS 15:00:00 TS 13.35 70.23 442 442 _________PO___ -1 13.41 70.16 TC 64 13.30 70.30 4 3 302
1893 NI AS 18:00:00 TS 13.43 70.08 451 451 _________OP___ -1 13.50 70.00 TC 64 13.37 70.15 4 3 293
1893 NI AS 21:00:00 TS 13.49 69.91 466 466 _________PP___ -1 13.54 69.82 TC 64 13.43 69.99 4 4 288
1893 NI AS 1893-11-15 00:00:00 TS 13.55 69.71 482 482 _________OP___ -1 13.60 69.60 TC 64 13.51 69.81 4 5 292
1893 NI AS 03:00:00 TS 13.67 69.46 499 499 _________PO___ -1 13.74 69.32 TC 64 13.60 69.60 4 6 296
1893 NI AS 06:00:00 TS 13.81 69.17 524 524 _________OP___ -1 13.90 69.00 TC 64 13.72 69.34 4 6 297
1893 NI AS 09:00:00 TS 13.95 68.88 546 546 _________PP___ -1 14.04 68.71 TC 64 13.86 69.05 4 7 297
1893 NI AS 12:00:00 TS 14.11 68.57 571 571 _________OP___ -1 14.20 68.40 TC 64 14.02 68.73 4 7 299
1893 NI AS 15:00:00 TS 14.30 68.23 599 599 _________PO___ -1 14.39 68.06 TC 64 14.20 68.40 4 8 300
1893 NI AS 18:00:00 TS 14.50 67.88 620 620 _________OP___ -1 14.60 67.70 TC 64 14.39 68.05 4 8 301
1893 NI AS 21:00:00 TS 14.70 67.52 653 653 _________PP___ -1 14.81 67.34 TC 64 14.60 67.69 4 8 301
1893 NI AS 1893-11-16 00:00:00 TS 14.90 67.17 677 677 _________OP___ -1 15.00 67.00 TC 64 14.81 67.34 4 8 300
1893 NI AS 03:00:00 TS 15.08 66.84 713 713 _________PO___ -1 15.16 66.68 TC 64 15.00 67.00 4 7 299
1893 NI AS 06:00:00 TS 15.23 66.55 741 739 _________OP___ -1 15.30 66.40 TC 64 15.16 66.70 4 6 299
1893 NI AS 09:00:00 TS 15.38 66.28 758 758 _________PP___ -1 15.45 66.14 TC 64 15.31 66.41 4 6 300
1893 NI AS 12:00:00 TS 15.53 66.02 767 758 _________OP___ -1 15.60 65.90 TC 64 15.45 66.15 4 6 301
1893 NI AS 15:00:00 TS 15.67 65.77 761 761 _________PO___ -1 15.74 65.64 TC 64 15.60 65.90 4 6 303
1893 NI AS 18:00:00 TS 15.84 65.51 772 762 _________OP___ -1 15.90 65.40 TC 64 15.78 65.63 4 6 307
1893 NI AS 21:00:00 TS 16.04 65.27 769 767 _________PP___ -1 16.11 65.17 TC 64 15.97 65.38 4 6 312
1893 NI AS 1893-11-17 00:00:00 TS 16.22 65.08 767 758 _________OP___ -1 16.30 65.00 TC 64 16.14 65.16 4 4 317
1893 NI AS 03:00:00 TS 16.36 64.96 758 758 _________PO___ -1 16.41 64.92 TC 64 16.30 65.00 4 3 325
1893 NI AS 06:00:00 TS 16.46 64.91 758 750 _________OP___ -1 16.50 64.90 TC 64 16.42 64.92 4 2 343
1893 NI AS 09:00:00 TS 16.56 64.89 750 743 _________PP___ -1 16.60 64.90 TC 64 16.52 64.89 4 2 0
1893 NI AS 12:00:00 TS 16.66 64.90 743 743 _________OP___ -1 16.70 64.90 TC 64 16.61 64.89 4 2 354
1893 NI AS 15:00:00 TS 16.75 64.88 735 735 _________PO___ -1 16.80 64.85 TC 64 16.70 64.90 4 2 340
1893 NI AS 18:00:00 TS 16.84 64.82 742 734 _________OP___ -1 16.90 64.80 TC 64 16.78 64.84 4 2 331
1893 NI AS 21:00:00 TS 16.91 64.78 734 727 _________PP___ -1 16.97 64.78 TC 64 16.85 64.79 4 2 350
1893 NI AS 1893-11-18 00:00:00 TS 17.03 64.78 727 711 _________OP___ -1 17.10 64.80 TC 64 16.96 64.77 4 3 8
1893 NI AS 03:00:00 TS 17.24 64.83 711 680 _________PO___ -1 17.38 64.86 TC 64 17.10 64.80 4 5 18
1893 NI AS 06:00:00 TS 17.51 64.95 672 649 _________OP___ -1 17.70 65.00 TC 64 17.32 64.90 4 6 30
1893 NI AS 09:00:00 TS 17.75 65.14 640 603 _________PP___ -1 17.92 65.23 TC 64 17.58 65.06 4 6 41
1893 NI AS 12:00:00 TS 17.98 65.38 603 572 _________OP___ -1 18.10 65.50 TC 64 17.85 65.26 4 6 47
1893 NI AS 15:00:00 TS 18.18 65.62 572 549 _________PO___ -1 18.26 65.74 TC 64 18.10 65.50 4 6 52
1893 NI AS 18:00:00 TS 18.33 65.86 542 511 _________OP___ -1 18.40 66.00 TC 64 18.26 65.72 4 6 60
1893 NI AS 21:00:00 TS 18.46 66.13 511 480 _________PP___ -1 18.53 66.28 TC 64 18.39 65.98 4 6 62
1893 NI AS 1893-11-19 00:00:00 TS 18.61 66.43 480 434 _________OP___ -1 18.70 66.60 TC 64 18.53 66.27 4 7 59
1893 NI AS 03:00:00 TS 18.84 66.79 434 381 _________PO___ -1 18.98 66.98 TC 64 18.70 66.60 4 9 54
1893 NI AS 06:00:00 TS 19.12 67.19 381 327 _________OP___ -1 19.30 67.40 TC 64 18.95 66.97 4 10 55
1893 NI AS 09:00:00 TS 19.39 67.62 327 282 _________PP___ -1 19.56 67.84 TC 64 19.23 67.39 4 10 57
1893 NI AS 12:00:00 TS 19.66 68.07 266 221 _________OP___ -1 19.80 68.30 TC 64 19.52 67.84 4 10 58
1893 NI AS 15:00:00 TS 19.93 68.52 221 175 _________PO___ -1 20.06 68.74 TC 55 19.80 68.30 4 10 59
1893 NI AS 18:00:00 TS 20.16 68.95 159 114 _________OP___ -1 20.30 69.20 TC 47 20.05 68.77 4 10 62
1893 NI AS 21:00:00 TS 20.37 69.42 114 64 _________PP___ -1 20.51 69.69 TC 38 20.28 69.24 4 10 65
1893 NI AS 1893-11-20 00:00:00 TS 20.56 69.88 64 38 _________OP___ -1 20.70 70.20 TC 30 20.50 69.72 4 8 66
1893 NI AS 03:00:00 NR 20.70 70.20 38 __________O___ -1 TC 20.70 70.20 1 7 66